Time;durP1;ratioP1;P1;durP2;ratioP2;P2;SDS_P1;SDS_P2;PMS_P1;PMS_P2;Temp;Humidity;BMP_temperature;BMP_pressure;BME280_temperature;BME280_humidity;BME280_pressure;Samples;Min_cycle;Max_cycle;Signal;HPM_P1;HPM_P2
2023/02/27 00:01:57;;;;;;;1.00;0.80;;;15.70;51.40;;;;;;5113083;28;20644;-56
2023/02/27 00:04:23;;;;;;;0.80;0.75;;;15.60;51.40;;;;;;5111719;28;20173;-55
2023/02/27 00:06:48;;;;;;;0.55;0.55;;;15.70;51.40;;;;;;5112639;28;20597;-55
2023/02/27 00:09:14;;;;;;;0.70;0.70;;;15.60;51.30;;;;;;5112125;28;20165;-52
2023/02/27 00:11:40;;;;;;;0.70;0.70;;;15.60;51.30;;;;;;5112388;28;20215;-54
2023/02/27 00:14:05;;;;;;;1.83;0.98;;;15.60;51.40;;;;;;5112659;28;20177;-55
2023/02/27 00:16:31;;;;;;;1.70;1.05;;;15.60;51.40;;;;;;5112323;28;20211;-55
2023/02/27 00:18:59;;;;;;;1.75;1.10;;;15.60;51.40;;;;;;5112322;28;20671;-55
2023/02/27 00:21:25;;;;;;;0.80;0.80;;;15.60;51.40;;;;;;5113229;28;20184;-54
2023/02/27 00:23:51;;;;;;;0.70;0.70;;;15.50;51.30;;;;;;5115360;28;20598;-54
2023/02/27 00:26:16;;;;;;;2.13;0.82;;;15.50;51.30;;;;;;5116334;28;20222;-51
2023/02/27 00:28:42;;;;;;;0.85;0.73;;;15.50;51.30;;;;;;5115937;28;20928;-53
2023/02/27 00:31:07;;;;;;;1.05;0.90;;;15.50;51.40;;;;;;5115597;28;20268;-51
2023/02/27 00:33:33;;;;;;;0.77;0.68;;;15.50;51.40;;;;;;5115929;28;20217;-53
2023/02/27 00:36:00;;;;;;;1.33;1.10;;;15.50;51.30;;;;;;5116181;28;20204;-50
2023/02/27 00:38:25;;;;;;;1.55;1.02;;;15.50;51.40;;;;;;5115494;28;20177;-53
2023/02/27 00:40:51;;;;;;;0.95;0.75;;;15.50;51.40;;;;;;5115875;28;20588;-51
2023/02/27 00:43:16;;;;;;;0.73;0.70;;;15.50;51.40;;;;;;5115973;28;20688;-53
2023/02/27 00:45:42;;;;;;;0.80;0.70;;;15.40;51.30;;;;;;5115203;28;20177;-52
2023/02/27 00:48:07;;;;;;;0.75;0.75;;;15.50;51.40;;;;;;5116159;28;20184;-55
2023/02/27 00:50:33;;;;;;;0.93;0.73;;;15.40;51.30;;;;;;5115786;28;20260;-53
2023/02/27 00:52:59;;;;;;;0.85;0.80;;;15.40;51.30;;;;;;5115060;28;20220;-53
2023/02/27 00:55:24;;;;;;;1.30;1.00;;;15.40;51.30;;;;;;5115605;28;20173;-49
2023/02/27 00:57:50;;;;;;;1.25;0.80;;;15.40;51.30;;;;;;5115638;28;20189;-52
2023/02/27 01:00:16;;;;;;;1.95;1.15;;;15.40;51.30;;;;;;5115382;28;20571;-54
2023/02/27 01:02:41;;;;;;;0.80;0.80;;;15.40;51.30;;;;;;5115657;28;20708;-54
2023/02/27 01:05:07;;;;;;;1.00;0.90;;;15.30;51.30;;;;;;5115726;28;20173;-53
2023/02/27 01:07:33;;;;;;;0.80;0.80;;;15.30;51.30;;;;;;5114773;28;20635;-55
2023/02/27 01:09:59;;;;;;;1.08;0.65;;;15.30;51.30;;;;;;5115579;28;20208;-50
2023/02/27 01:12:25;;;;;;;1.48;0.95;;;15.30;51.30;;;;;;5115048;28;20223;-53
2023/02/27 01:14:50;;;;;;;1.08;0.98;;;15.30;51.30;;;;;;5115007;28;20528;-52
2023/02/27 01:17:16;;;;;;;1.13;0.80;;;15.30;51.30;;;;;;5115478;28;20169;-51
2023/02/27 01:19:41;;;;;;;1.25;0.80;;;15.30;51.30;;;;;;5114191;28;20308;-52
2023/02/27 01:22:07;;;;;;;0.70;0.70;;;15.30;51.30;;;;;;5115291;28;20298;-55
2023/02/27 01:24:32;;;;;;;1.67;0.82;;;15.30;51.30;;;;;;5114982;28;20261;-50
2023/02/27 01:26:58;;;;;;;2.20;1.02;;;15.20;51.20;;;;;;5114692;28;20629;-54
2023/02/27 01:29:23;;;;;;;1.25;0.73;;;15.20;51.20;;;;;;5115226;28;20173;-53
2023/02/27 01:31:49;;;;;;;1.52;0.95;;;15.20;51.20;;;;;;5114593;28;20213;-50
2023/02/27 01:34:15;;;;;;;1.33;0.70;;;15.20;51.20;;;;;;5113362;28;20261;-51
2023/02/27 01:36:40;;;;;;;1.05;0.95;;;15.20;51.20;;;;;;5114704;28;20222;-53
2023/02/27 01:39:06;;;;;;;2.30;0.75;;;15.20;51.20;;;;;;5114962;28;20256;-50
2023/02/27 01:41:31;;;;;;;0.95;0.82;;;15.20;51.20;;;;;;5113800;28;20193;-54
2023/02/27 01:43:59;;;;;;;0.77;0.77;;;15.20;51.20;;;;;;5114995;28;20177;-54
2023/02/27 01:46:26;;;;;;;0.80;0.80;;;15.20;51.20;;;;;;5114634;28;20620;-54
2023/02/27 01:48:54;;;;;;;1.60;0.85;;;15.10;51.20;;;;;;5113818;28;20524;-53
2023/02/27 01:51:20;;;;;;;0.73;0.68;;;15.10;51.20;;;;;;5113496;28;20311;-51
2023/02/27 01:53:47;;;;;;;1.17;0.90;;;15.10;51.10;;;;;;5114589;28;20268;-51
2023/02/27 01:56:28;;;;;;;0.70;0.70;;;15.10;51.20;;;;;;5112857;28;20174;-55
2023/02/27 01:58:57;;;;;;;0.73;0.73;;;15.10;51.20;;;;;;5113342;28;20253;-50
2023/02/27 02:01:22;;;;;;;0.80;0.80;;;15.10;51.10;;;;;;5114548;28;20531;-54
2023/02/27 02:03:57;;;;;;;1.58;0.85;;;15.10;51.20;;;;;;5112212;28;20169;-51
2023/02/27 02:06:23;;;;;;;1.00;0.80;;;15.10;51.10;;;;;;5114228;28;20203;-55
2023/02/27 02:08:49;;;;;;;0.85;0.80;;;15.10;51.20;;;;;;5113522;28;20569;-54
2023/02/27 02:11:15;;;;;;;1.00;1.00;;;15.00;51.10;;;;;;5096287;28;20177;-51
2023/02/27 02:13:41;;;;;;;1.10;1.02;;;15.10;51.20;;;;;;5112812;28;20541;-51
2023/02/27 02:16:31;;;;;;;1.70;0.80;;;15.00;51.10;;;;;;5112470;28;20173;-51
2023/02/27 02:19:32;;;;;;;1.33;0.82;;;15.00;51.10;;;;;;5114088;28;20221;-55
2023/02/27 02:22:24;;;;;;;2.47;1.00;;;15.00;51.10;;;;;;5112939;28;20624;-53
2023/02/27 02:25:09;;;;;;;2.42;0.93;;;15.00;51.10;;;;;;5113159;28;20218;-55
2023/02/27 02:27:47;;;;;;;1.05;0.70;;;15.00;51.10;;;;;;5112753;28;20257;-53
2023/02/27 02:30:38;;;;;;;2.08;1.00;;;15.00;51.10;;;;;;5112109;28;20704;-52
2023/02/27 02:33:15;;;;;;;1.15;0.80;;;14.90;51.00;;;;;;5113959;28;20252;-55
2023/02/27 02:35:52;;;;;;;1.27;1.17;;;14.90;51.00;;;;;;5113481;28;20180;-55
2023/02/27 02:38:28;;;;;;;1.50;0.88;;;14.90;51.10;;;;;;5112121;28;20257;-54
2023/02/27 02:41:24;;;;;;;0.93;0.90;;;14.90;51.10;;;;;;5096434;28;20259;-55
2023/02/27 02:43:59;;;;;;;1.95;1.08;;;14.90;51.00;;;;;;5112079;28;20176;-54
2023/02/27 02:46:52;;;;;;;1.23;1.00;;;14.90;51.10;;;;;;5112465;28;20211;-55
2023/02/27 02:49:17;;;;;;;1.27;0.85;;;14.90;51.00;;;;;;5112558;28;20191;-54
2023/02/27 02:51:45;;;;;;;2.08;0.80;;;14.90;51.00;;;;;;5112660;28;20196;-54
2023/02/27 02:54:24;;;;;;;0.95;0.82;;;14.90;51.10;;;;;;5113706;28;20326;-54
2023/02/27 02:56:59;;;;;;;1.05;1.00;;;14.90;51.10;;;;;;5096151;28;20177;-53
2023/02/27 03:00:15;;;;;;;1.48;0.90;;;14.80;51.10;;;;;;5095389;28;20173;-55
2023/02/27 03:03:27;;;;;;;2.13;1.17;;;14.90;51.00;;;;;;5078816;28;20181;-51
2023/02/27 03:06:04;;;;;;;0.90;0.90;;;14.80;51.00;;;;;;5108238;28;20180;-53
2023/02/27 03:08:32;;;;;;;2.25;1.00;;;14.80;51.00;;;;;;5096538;28;20183;-55
2023/02/27 03:10:59;;;;;;;1.00;0.90;;;14.80;51.00;;;;;;5095298;28;20236;-54
2023/02/27 03:13:36;;;;;;;0.82;0.82;;;14.80;51.00;;;;;;5094652;28;20308;-53
2023/02/27 03:16:40;;;;;;;0.93;0.80;;;14.80;51.00;;;;;;5113475;28;20255;-54
2023/02/27 03:19:17;;;;;;;0.85;0.85;;;14.80;51.00;;;;;;5032794;28;20237;-54
2023/02/27 03:22:04;;;;;;;1.30;1.17;;;14.80;51.00;;;;;;5102951;28;20696;-53
2023/02/27 03:24:38;;;;;;;2.20;1.10;;;14.80;51.00;;;;;;5112202;28;20189;-53
2023/02/27 03:27:04;;;;;;;1.95;0.90;;;14.80;51.00;;;;;;5111528;28;20584;-53
2023/02/27 03:29:49;;;;;;;1.00;0.88;;;14.80;51.00;;;;;;5112886;28;20238;-54
2023/02/27 03:32:20;;;;;;;1.48;0.80;;;14.70;51.00;;;;;;5113316;28;20208;-54
2023/02/27 03:34:46;;;;;;;1.33;1.20;;;14.70;51.00;;;;;;5111155;28;20173;-50
2023/02/27 03:37:28;;;;;;;1.42;1.00;;;14.70;51.00;;;;;;5095100;28;20179;-55
2023/02/27 03:39:58;;;;;;;0.73;0.70;;;14.70;51.00;;;;;;5096504;28;20199;-53
2023/02/27 03:43:19;;;;;;;0.95;0.90;;;14.70;51.00;;;;;;5111037;28;20641;-53
2023/02/27 03:45:53;;;;;;;2.13;1.30;;;14.70;51.00;;;;;;5049925;28;20183;-54
2023/02/27 03:48:18;;;;;;;0.98;0.80;;;14.70;51.00;;;;;;5110291;28;20203;-54
2023/02/27 03:50:44;;;;;;;1.02;0.80;;;14.70;51.00;;;;;;5112655;28;20697;-53
2023/02/27 03:53:20;;;;;;;2.70;0.93;;;14.70;51.00;;;;;;5111433;28;20645;-53
2023/02/27 03:55:45;;;;;;;1.00;0.90;;;14.60;50.90;;;;;;5110930;28;20218;-54
2023/02/27 03:58:11;;;;;;;1.20;1.10;;;14.60;51.00;;;;;;5097748;28;20173;-52
2023/02/27 04:00:36;;;;;;;1.48;1.20;;;14.60;51.00;;;;;;5115546;28;20252;-54
2023/02/27 04:03:02;;;;;;;1.65;1.10;;;14.60;51.00;;;;;;5114811;28;20699;-54
2023/02/27 04:05:27;;;;;;;1.25;1.10;;;14.60;51.00;;;;;;5098403;28;20165;-51
2023/02/27 04:07:57;;;;;;;1.50;1.20;;;14.60;51.00;;;;;;5116640;28;20187;-51
2023/02/27 04:10:49;;;;;;;0.90;0.90;;;14.60;51.00;;;;;;5114686;28;20256;-50
2023/02/27 04:13:37;;;;;;;1.33;1.00;;;14.60;51.00;;;;;;5115330;28;20243;-53
2023/02/27 04:16:19;;;;;;;1.48;1.25;;;14.60;51.00;;;;;;5114843;28;20181;-54
2023/02/27 04:19:09;;;;;;;1.48;1.38;;;14.60;51.00;;;;;;5116214;28;20216;-54
2023/02/27 04:21:40;;;;;;;2.35;1.17;;;14.60;51.00;;;;;;5115288;28;20196;-53
2023/02/27 04:24:11;;;;;;;1.23;1.00;;;14.50;51.00;;;;;;5093934;28;20216;-51
2023/02/27 04:26:41;;;;;;;2.20;1.20;;;14.50;50.90;;;;;;5111729;28;20288;-52
2023/02/27 04:29:07;;;;;;;1.20;1.10;;;14.50;51.00;;;;;;5095993;28;20239;-55
2023/02/27 04:31:48;;;;;;;2.88;1.25;;;14.50;51.00;;;;;;5094876;28;20239;-50
2023/02/27 04:34:23;;;;;;;1.02;0.90;;;14.50;50.90;;;;;;5111535;28;20177;-53
2023/02/27 04:36:56;;;;;;;1.17;1.08;;;14.50;51.00;;;;;;5110865;28;20184;-52
2023/02/27 04:39:31;;;;;;;1.50;0.80;;;14.50;51.00;;;;;;5095671;28;20671;-52
2023/02/27 04:42:02;;;;;;;1.40;1.05;;;14.50;51.00;;;;;;5095693;28;20199;-53
2023/02/27 04:44:28;;;;;;;1.65;1.40;;;14.50;51.00;;;;;;5110763;28;20722;-53
2023/02/27 04:46:54;;;;;;;1.00;1.00;;;14.50;50.90;;;;;;5110990;28;20242;-55
2023/02/27 04:49:39;;;;;;;1.50;0.90;;;14.50;51.00;;;;;;5095778;28;20205;-54
2023/02/27 04:52:11;;;;;;;0.98;0.95;;;14.40;50.90;;;;;;5110699;28;20217;-54
2023/02/27 04:54:58;;;;;;;1.45;1.10;;;14.50;51.00;;;;;;5110792;28;20178;-54
2023/02/27 04:57:30;;;;;;;1.40;1.10;;;14.40;50.90;;;;;;5108794;28;20181;-54
2023/02/27 04:59:56;;;;;;;1.88;1.38;;;14.40;50.90;;;;;;5110949;28;20252;-54
2023/02/27 05:02:31;;;;;;;1.83;1.17;;;14.40;50.90;;;;;;5111140;28;20641;-55
2023/02/27 05:04:58;;;;;;;1.42;1.15;;;14.40;50.90;;;;;;5110388;28;20173;-56
2023/02/27 05:07:33;;;;;;;1.88;1.13;;;14.40;50.90;;;;;;5110267;28;20193;-54
2023/02/27 05:10:07;;;;;;;1.55;1.15;;;14.40;50.90;;;;;;5111028;28;20783;-51
2023/02/27 05:12:34;;;;;;;2.45;1.10;;;14.40;50.90;;;;;;5110199;28;20205;-50
2023/02/27 05:15:12;;;;;;;1.25;1.10;;;14.40;51.00;;;;;;5095102;28;20262;-53
2023/02/27 05:17:51;;;;;;;1.08;0.98;;;14.40;51.00;;;;;;5110490;28;20667;-51
2023/02/27 05:20:17;;;;;;;1.48;1.00;;;14.40;50.90;;;;;;5109160;28;20228;-50
2023/02/27 05:23:12;;;;;;;1.08;0.98;;;14.30;50.90;;;;;;5094555;28;20182;-50
2023/02/27 05:26:00;;;;;;;1.20;1.10;;;14.30;50.90;;;;;;5109926;28;20235;-54
2023/02/27 05:29:08;;;;;;;1.65;1.00;;;14.40;50.90;;;;;;5108349;28;20185;-51
2023/02/27 05:31:46;;;;;;;1.10;1.00;;;14.30;50.90;;;;;;5094225;28;20217;-50
2023/02/27 05:34:16;;;;;;;1.50;1.08;;;14.30;50.90;;;;;;5109734;28;20178;-50
2023/02/27 05:36:46;;;;;;;1.25;1.13;;;14.30;50.90;;;;;;5109933;28;20185;-53
2023/02/27 05:39:12;;;;;;;1.10;1.00;;;14.30;50.90;;;;;;5110415;28;20174;-55
2023/02/27 05:41:41;;;;;;;1.42;1.33;;;14.30;50.90;;;;;;5109411;28;20197;-53
2023/02/27 05:44:21;;;;;;;1.67;1.20;;;14.30;50.90;;;;;;5094407;28;20177;-54
2023/02/27 05:47:14;;;;;;;2.28;1.45;;;14.30;50.90;;;;;;5109231;28;20169;-50
2023/02/27 05:49:42;;;;;;;2.35;1.10;;;14.20;50.80;;;;;;5106926;28;20628;-50
2023/02/27 05:52:10;;;;;;;1.40;1.23;;;14.30;50.90;;;;;;5110161;28;20209;-54
2023/02/27 05:54:52;;;;;;;1.83;1.33;;;14.20;50.80;;;;;;5108893;28;20188;-52
2023/02/27 05:57:30;;;;;;;2.20;1.30;;;14.20;50.90;;;;;;5109771;28;20180;-51
2023/02/27 06:00:21;;;;;;;1.27;0.82;;;14.30;50.90;;;;;;5109778;28;20169;-53
2023/02/27 06:02:47;;;;;;;1.02;1.00;;;14.30;50.80;;;;;;5105732;28;20193;-55
2023/02/27 06:05:13;;;;;;;1.15;1.00;;;14.50;50.60;;;;;;5093907;28;20174;-55
2023/02/27 06:07:38;;;;;;;2.47;1.15;;;14.60;50.40;;;;;;5093727;28;20279;-54
2023/02/27 06:10:04;;;;;;;1.00;0.88;;;14.70;50.30;;;;;;5093159;28;20162;-54
2023/02/27 06:12:30;;;;;;;1.30;1.20;;;14.90;50.00;;;;;;5109818;28;20209;-50
2023/02/27 06:14:55;;;;;;;1.10;1.00;;;15.20;49.80;;;;;;5093010;28;20216;-52
2023/02/27 06:17:21;;;;;;;1.25;1.15;;;15.30;49.50;;;;;;5093872;28;20607;-54
2023/02/27 06:19:46;;;;;;;1.15;1.05;;;15.50;49.30;;;;;;5092650;28;20248;-52
2023/02/27 06:22:12;;;;;;;1.88;1.33;;;15.70;49.10;;;;;;5093077;28;20284;-54
2023/02/27 06:24:37;;;;;;;1.90;0.90;;;15.90;48.80;;;;;;5093305;28;20579;-51
2023/02/27 06:27:03;;;;;;;1.25;0.90;;;16.00;48.60;;;;;;5093510;28;20173;-55
2023/02/27 06:29:28;;;;;;;1.38;1.17;;;16.20;48.40;;;;;;5093010;28;20620;-53
2023/02/27 06:31:54;;;;;;;1.05;1.00;;;16.20;48.30;;;;;;5093244;28;20292;-52
2023/02/27 06:34:19;;;;;;;1.60;1.10;;;16.20;48.30;;;;;;5093286;28;20169;-50
2023/02/27 06:36:45;;;;;;;1.33;1.23;;;16.10;48.30;;;;;;5092556;28;20173;-55
2023/02/27 06:39:11;;;;;;;1.17;1.08;;;16.10;48.40;;;;;;5093381;28;20170;-55
2023/02/27 06:41:36;;;;;;;1.48;1.30;;;16.00;48.50;;;;;;5093002;28;20173;-53
2023/02/27 06:44:02;;;;;;;1.02;0.80;;;16.00;48.60;;;;;;5092651;28;20170;-53
2023/02/27 06:46:27;;;;;;;2.40;1.45;;;16.00;48.70;;;;;;5093340;28;20170;-54
2023/02/27 06:48:53;;;;;;;1.52;1.20;;;16.00;48.70;;;;;;5092927;28;20200;-54
2023/02/27 06:51:18;;;;;;;1.52;1.27;;;16.00;48.70;;;;;;5092417;28;20185;-54
2023/02/27 06:53:44;;;;;;;0.93;0.93;;;16.00;48.70;;;;;;5092702;28;20303;-54
2023/02/27 06:56:09;;;;;;;1.42;1.15;;;16.00;48.70;;;;;;5093061;28;20757;-53
2023/02/27 06:58:35;;;;;;;1.15;1.05;;;16.00;48.70;;;;;;5092168;28;20275;-63
2023/02/27 07:01:01;;;;;;;2.10;1.15;;;16.00;48.80;;;;;;5092546;28;20185;-63
2023/02/27 07:03:26;;;;;;;1.80;1.10;;;16.20;48.80;;;;;;5092476;28;20632;-63
2023/02/27 07:05:52;;;;;;;1.00;0.88;;;16.30;48.80;;;;;;5091570;28;20247;-63
2023/02/27 07:08:17;;;;;;;2.17;1.02;;;16.50;48.70;;;;;;5092678;28;20230;-63
2023/02/27 07:10:45;;;;;;;2.17;1.10;;;16.70;48.50;;;;;;5092098;28;20624;-63
2023/02/27 07:13:12;;;;;;;2.25;1.00;;;16.90;48.30;;;;;;5091727;28;20300;-63
2023/02/27 07:15:37;;;;;;;2.15;1.30;;;17.20;47.60;;;;;;5092487;28;20639;-63
2023/02/27 07:18:03;;;;;;;1.05;0.90;;;17.20;47.60;;;;;;5092558;28;20192;-63
2023/02/27 07:20:28;;;;;;;1.52;1.10;;;17.20;47.60;;;;;;5091747;28;20228;-63
2023/02/27 07:22:54;;;;;;;1.42;1.13;;;17.30;47.60;;;;;;5092379;28;20589;-62
2023/02/27 07:25:19;;;;;;;2.30;1.17;;;17.30;47.60;;;;;;5092067;28;20559;-63
2023/02/27 07:27:47;;;;;;;1.13;1.00;;;17.40;47.50;;;;;;5092346;28;20525;-63
2023/02/27 07:30:13;;;;;;;2.55;1.00;;;17.40;47.50;;;;;;5092538;28;20195;-63
2023/02/27 07:32:39;;;;;;;2.47;1.08;;;17.40;47.50;;;;;;5095567;28;20209;-63
2023/02/27 07:35:05;;;;;;;2.33;1.20;;;17.30;47.60;;;;;;5096770;28;20169;-63
2023/02/27 07:37:30;;;;;;;1.80;1.05;;;17.40;47.60;;;;;;5096372;28;20635;-65
2023/02/27 07:39:56;;;;;;;2.38;1.17;;;17.40;47.60;;;;;;5095514;28;20174;-63
2023/02/27 07:42:21;;;;;;;2.28;1.40;;;17.30;47.70;;;;;;5096582;28;20222;-64
2023/02/27 07:44:47;;;;;;;1.42;1.00;;;17.30;47.60;;;;;;5096091;28;20224;-63
2023/02/27 07:47:12;;;;;;;2.05;0.98;;;17.40;47.60;;;;;;5095834;28;20234;-64
2023/02/27 07:49:38;;;;;;;1.92;0.98;;;17.30;47.80;;;;;;5095961;28;20162;-68
2023/02/27 07:52:03;;;;;;;1.95;1.00;;;17.30;47.80;;;;;;5096183;28;20221;-63
2023/02/27 07:54:29;;;;;;;1.52;0.90;;;17.30;48.10;;;;;;5095640;28;20181;-63
2023/02/27 07:56:54;;;;;;;1.45;1.10;;;17.30;48.20;;;;;;5096150;28;20177;-64
2023/02/27 07:59:20;;;;;;;2.50;1.00;;;17.30;48.30;;;;;;5096333;28;20189;-65
2023/02/27 08:01:45;;;;;;;1.98;0.90;;;17.30;48.30;;;;;;5095174;28;20701;-65
2023/02/27 08:04:11;;;;;;;1.58;1.13;;;17.40;48.20;;;;;;5096083;28;20169;-64
2023/02/27 08:06:36;;;;;;;1.85;1.00;;;17.40;48.20;;;;;;5095824;28;20177;-64
2023/02/27 08:09:02;;;;;;;1.63;1.00;;;17.40;48.20;;;;;;5095163;28;20196;-64
2023/02/27 08:11:28;;;;;;;2.10;0.95;;;17.40;48.10;;;;;;5096144;28;20219;-63
2023/02/27 08:13:53;;;;;;;1.67;0.95;;;17.40;48.20;;;;;;5095685;28;20173;-62
2023/02/27 08:16:20;;;;;;;2.85;1.30;;;17.40;48.20;;;;;;5095253;28;20169;-63
2023/02/27 08:18:45;;;;;;;1.63;1.10;;;17.50;48.50;;;;;;5095411;28;20260;-62
2023/02/27 08:21:11;;;;;;;2.72;1.20;;;17.40;48.70;;;;;;5095945;28;20202;-61
2023/02/27 08:23:36;;;;;;;3.50;1.02;;;17.60;48.70;;;;;;5094705;28;20268;-62
2023/02/27 08:26:02;;;;;;;1.58;1.13;;;17.50;48.80;;;;;;5095775;28;20174;-62
2023/02/27 08:28:27;;;;;;;2.13;1.23;;;17.50;48.90;;;;;;5095809;28;20230;-62
2023/02/27 08:30:53;;;;;;;1.25;0.90;;;17.50;48.90;;;;;;5094948;28;20181;-62
2023/02/27 08:33:19;;;;;;;2.67;1.05;;;17.50;48.80;;;;;;5095615;28;20259;-63
2023/02/27 08:35:45;;;;;;;1.38;1.10;;;17.50;48.80;;;;;;5094681;28;20543;-62
2023/02/27 08:38:10;;;;;;;3.42;1.13;;;17.50;48.90;;;;;;5095502;28;20177;-62
2023/02/27 08:40:36;;;;;;;1.35;0.80;;;17.40;48.90;;;;;;5095240;28;20528;-61
2023/02/27 08:43:01;;;;;;;1.25;1.00;;;17.40;49.70;;;;;;5094062;28;20217;-62
2023/02/27 08:45:27;;;;;;;0.98;0.90;;;17.40;49.30;;;;;;5095388;28;20219;-62
2023/02/27 08:47:52;;;;;;;1.13;0.88;;;17.30;49.40;;;;;;5094992;28;20170;-62
2023/02/27 08:50:18;;;;;;;1.60;0.82;;;17.30;49.40;;;;;;5094703;28;20210;-63
2023/02/27 08:52:44;;;;;;;1.50;1.00;;;17.30;49.40;;;;;;5094774;28;20250;-63
2023/02/27 08:55:09;;;;;;;1.58;1.00;;;17.30;49.60;;;;;;5095448;28;20228;-62
2023/02/27 08:57:35;;;;;;;3.10;1.20;;;17.30;49.70;;;;;;5094101;28;20180;-63
2023/02/27 09:00:01;;;;;;;3.40;1.00;;;17.30;49.80;;;;;;5094987;28;20182;-63
2023/02/27 09:02:26;;;;;;;1.45;0.98;;;17.20;49.90;;;;;;5095168;28;20169;-63
2023/02/27 09:04:52;;;;;;;1.00;0.70;;;17.20;50.60;;;;;;5093791;28;20526;-64
2023/02/27 09:07:18;;;;;;;2.40;1.02;;;17.20;50.10;;;;;;5094966;28;20688;-63
2023/02/27 09:09:44;;;;;;;2.08;1.13;;;17.10;50.10;;;;;;5094842;28;20643;-63
2023/02/27 09:12:09;;;;;;;1.55;1.00;;;17.10;50.20;;;;;;5094543;28;20247;-62
2023/02/27 09:14:35;;;;;;;1.70;1.00;;;17.10;50.30;;;;;;5101537;28;20685;-63
2023/02/27 09:17:00;;;;;;;1.63;1.20;;;17.10;50.40;;;;;;5113877;28;20509;-62
2023/02/27 09:19:26;;;;;;;1.85;0.90;;;17.10;50.40;;;;;;5113317;28;20209;-62
2023/02/27 09:21:52;;;;;;;1.02;0.80;;;17.10;51.10;;;;;;5114165;28;20177;-63
2023/02/27 09:24:17;;;;;;;1.13;0.82;;;17.10;50.50;;;;;;5114851;28;20165;-63
2023/02/27 09:26:43;;;;;;;4.20;0.95;;;17.10;50.50;;;;;;5113789;28;20173;-63
2023/02/27 09:29:08;;;;;;;2.50;1.15;;;17.10;50.60;;;;;;5114270;28;20180;-63
2023/02/27 09:31:34;;;;;;;1.85;1.30;;;17.20;50.60;;;;;;5114284;28;20177;-65
2023/02/27 09:34:00;;;;;;;1.40;0.82;;;17.10;50.60;;;;;;5113693;28;20563;-63
2023/02/27 09:36:26;;;;;;;2.28;1.00;;;17.20;50.70;;;;;;5114273;28;20165;-62
2023/02/27 09:38:52;;;;;;;1.10;1.00;;;17.20;50.70;;;;;;5113550;28;20254;-62
2023/02/27 09:41:56;;;;;;;1.73;0.73;;;17.20;50.80;;;;;;5114336;28;20157;-62
2023/02/27 09:44:43;;;;;;;4.28;0.90;;;17.20;50.80;;;;;;5126096;27;20651;-61
2023/02/27 09:47:13;;;;;;;1.42;0.65;;;17.20;50.90;;;;;;5112972;28;20165;-61
2023/02/27 09:49:47;;;;;;;0.82;0.80;;;17.20;50.90;;;;;;5109939;28;20169;-61
2023/02/27 09:52:12;;;;;;;1.23;0.90;;;17.20;50.90;;;;;;5112740;28;20201;-61
2023/02/27 09:54:38;;;;;;;0.88;0.60;;;17.20;50.90;;;;;;5110780;28;20169;-62
2023/02/27 09:57:04;;;;;;;2.03;0.80;;;17.20;50.90;;;;;;5113661;28;20184;-62
2023/02/27 09:59:49;;;;;;;1.33;1.02;;;17.20;50.90;;;;;;5112467;28;20176;-62
2023/02/27 10:02:46;;;;;;;1.98;1.00;;;17.30;51.00;;;;;;5112339;28;20180;-62
2023/02/27 10:06:10;;;;;;;0.95;0.75;;;17.30;51.00;;;;;;5113813;27;20585;-63
2023/02/27 10:08:53;;;;;;;1.95;0.80;;;17.30;51.00;;;;;;5089661;28;20623;-62
2023/02/27 10:11:44;;;;;;;0.95;0.70;;;17.30;51.00;;;;;;5114086;28;20180;-62
2023/02/27 10:14:18;;;;;;;2.03;0.98;;;17.30;51.00;;;;;;5111681;28;20189;-62
2023/02/27 10:16:44;;;;;;;1.80;0.88;;;17.30;51.00;;;;;;5113850;28;20696;-62
2023/02/27 10:19:14;;;;;;;0.98;0.88;;;17.30;51.00;;;;;;5112386;28;20260;-62
2023/02/27 10:21:42;;;;;;;0.82;0.77;;;17.30;51.00;;;;;;5111627;28;20180;-62
2023/02/27 10:24:26;;;;;;;0.75;0.70;;;17.30;51.00;;;;;;5113701;28;20576;-62
2023/02/27 10:26:53;;;;;;;1.55;1.05;;;17.30;51.00;;;;;;5112324;28;20181;-63
2023/02/27 10:29:28;;;;;;;3.08;1.20;;;17.20;51.20;;;;;;5112036;28;20171;-64
2023/02/27 10:32:14;;;;;;;1.17;0.88;;;17.10;51.40;;;;;;5112133;28;20200;-64
2023/02/27 10:34:41;;;;;;;5.65;1.02;;;17.10;51.50;;;;;;5112088;28;20220;-64
2023/02/27 10:37:06;;;;;;;2.25;1.02;;;17.10;51.40;;;;;;5111695;28;20165;-62
2023/02/27 10:39:49;;;;;;;1.38;1.08;;;17.20;51.40;;;;;;5112193;28;20173;-62
2023/02/27 10:42:14;;;;;;;0.80;0.70;;;17.20;51.40;;;;;;5111480;28;20716;-63
2023/02/27 10:44:40;;;;;;;1.95;0.82;;;17.30;51.40;;;;;;5112055;28;20181;-62
2023/02/27 10:47:05;;;;;;;1.58;0.95;;;17.30;51.40;;;;;;5112161;28;20165;-63
2023/02/27 10:49:31;;;;;;;1.13;0.90;;;17.30;51.40;;;;;;5112634;28;20180;-62
2023/02/27 10:52:06;;;;;;;1.65;0.95;;;17.30;51.40;;;;;;5112120;28;20215;-62
2023/02/27 10:54:31;;;;;;;3.15;0.98;;;17.30;51.40;;;;;;5112981;28;20639;-62
2023/02/27 10:56:59;;;;;;;1.38;1.10;;;17.40;51.40;;;;;;5112543;28;20180;-63
2023/02/27 10:59:27;;;;;;;1.33;1.02;;;17.40;51.40;;;;;;5112214;28;20177;-63
2023/02/27 11:02:00;;;;;;;2.72;0.90;;;17.40;51.40;;;;;;5112725;28;20212;-63
2023/02/27 11:04:34;;;;;;;1.00;0.85;;;17.40;51.40;;;;;;5112724;28;20177;-61
2023/02/27 11:07:02;;;;;;;1.05;0.70;;;17.40;51.40;;;;;;5111687;28;20168;-63
2023/02/27 11:09:30;;;;;;;1.33;0.73;;;17.40;51.30;;;;;;5112127;28;20176;-63
2023/02/27 11:12:08;;;;;;;0.73;0.73;;;17.40;51.30;;;;;;5112053;28;20225;-63
2023/02/27 11:14:34;;;;;;;2.65;0.98;;;17.40;51.30;;;;;;5111831;28;20204;-63
2023/02/27 11:17:00;;;;;;;0.93;0.70;;;17.50;51.40;;;;;;5112850;28;20632;-63
2023/02/27 11:19:38;;;;;;;1.92;0.70;;;17.50;51.30;;;;;;5111851;28;20224;-63
2023/02/27 11:22:15;;;;;;;1.88;0.85;;;17.50;51.30;;;;;;5112917;28;20271;-63
2023/02/27 11:24:40;;;;;;;1.63;1.27;;;17.50;51.30;;;;;;5111814;28;20493;-63
2023/02/27 11:27:27;;;;;;;2.08;0.80;;;17.50;51.20;;;;;;5113224;28;20616;-63
2023/02/27 11:30:01;;;;;;;2.90;1.15;;;17.50;51.20;;;;;;5112599;28;20661;-63
2023/02/27 11:32:40;;;;;;;0.90;0.70;;;17.50;51.20;;;;;;5112240;28;20205;-64
2023/02/27 11:35:20;;;;;;;0.77;0.77;;;17.60;51.20;;;;;;5112986;28;20180;-64
2023/02/27 11:37:48;;;;;;;1.10;0.60;;;17.60;51.20;;;;;;5111484;28;20183;-64
2023/02/27 11:40:15;;;;;;;2.47;0.70;;;17.60;51.20;;;;;;5112408;28;20631;-68
2023/02/27 11:42:43;;;;;;;1.38;0.70;;;17.70;51.20;;;;;;5112650;28;20172;-69
2023/02/27 11:45:32;;;;;;;1.50;0.82;;;17.60;51.30;;;;;;5111734;28;20176;-67
2023/02/27 11:48:21;;;;;;;2.05;0.80;;;17.60;51.40;;;;;;5113006;28;20181;-68
2023/02/27 11:51:05;;;;;;;0.95;0.75;;;17.60;51.50;;;;;;5111539;28;20184;-64
2023/02/27 11:53:57;;;;;;;1.08;0.80;;;17.60;51.50;;;;;;5111985;28;20551;-69
2023/02/27 11:56:47;;;;;;;1.55;0.80;;;17.60;51.50;;;;;;5111614;28;20253;-63
2023/02/27 11:59:22;;;;;;;3.03;1.23;;;17.60;51.40;;;;;;5104182;28;20679;-65
2023/02/27 12:02:23;;;;;;;1.88;1.10;;;17.60;51.50;;;;;;5110706;28;20255;-65
2023/02/27 12:04:50;;;;;;;3.30;1.05;;;17.60;51.30;;;;;;5079151;28;20250;-65
2023/02/27 12:07:30;;;;;;;4.10;1.00;;;17.50;51.20;;;;;;5110950;28;20177;-65
2023/02/27 12:10:00;;;;;;;1.50;1.10;;;17.50;51.40;;;;;;5110697;28;20204;-64
2023/02/27 12:12:47;;;;;;;1.17;0.82;;;17.50;51.40;;;;;;5112454;28;20201;-64
2023/02/27 12:15:23;;;;;;;2.50;0.90;;;17.40;51.50;;;;;;5110552;28;20674;-65
2023/02/27 12:18:09;;;;;;;1.75;0.90;;;17.40;51.50;;;;;;5111812;28;20177;-64
2023/02/27 12:20:49;;;;;;;1.55;0.80;;;17.40;51.50;;;;;;5114133;28;20255;-65
2023/02/27 12:23:39;;;;;;;3.97;1.08;;;17.30;51.60;;;;;;5115054;28;20181;-64
2023/02/27 12:26:27;;;;;;;1.80;0.80;;;17.30;51.70;;;;;;5103441;28;20204;-64
2023/02/27 12:28:58;;;;;;;1.75;1.00;;;17.20;51.80;;;;;;5115357;28;20180;-70
2023/02/27 12:31:27;;;;;;;3.17;0.90;;;17.20;51.80;;;;;;5116117;28;20181;-65
2023/02/27 12:33:57;;;;;;;2.40;0.95;;;17.10;52.00;;;;;;5115720;28;20209;-65
2023/02/27 12:36:23;;;;;;;1.42;0.80;;;17.30;52.00;;;;;;5114210;28;20197;-65
2023/02/27 12:38:48;;;;;;;2.33;1.02;;;17.30;51.80;;;;;;5115562;28;20219;-65
2023/02/27 12:41:35;;;;;;;2.20;0.85;;;17.30;51.70;;;;;;5115944;28;20177;-64
2023/02/27 12:44:36;;;;;;;4.20;1.08;;;17.20;51.70;;;;;;5115143;28;20188;-64
2023/02/27 12:47:20;;;;;;;3.20;0.98;;;17.10;51.90;;;;;;5072417;28;20192;-64
2023/02/27 12:50:06;;;;;;;2.67;0.98;;;17.10;51.90;;;;;;5114900;28;20267;-64
2023/02/27 12:52:51;;;;;;;1.15;0.75;;;17.10;51.90;;;;;;5114523;28;20223;-63
2023/02/27 12:55:17;;;;;;;3.10;1.17;;;17.00;51.70;;;;;;5115701;28;20169;-63
2023/02/27 12:58:17;;;;;;;3.40;1.40;;;17.10;51.70;;;;;;5113234;28;20191;-65
2023/02/27 13:00:48;;;;;;;2.30;0.95;;;17.00;51.60;;;;;;5114029;28;20230;-65
2023/02/27 13:03:18;;;;;;;1.48;0.88;;;17.00;51.70;;;;;;5114568;28;20173;-64
2023/02/27 13:05:57;;;;;;;1.98;0.85;;;16.90;51.70;;;;;;5114089;28;20238;-65
2023/02/27 13:08:46;;;;;;;1.50;0.90;;;16.90;51.70;;;;;;5115268;28;20493;-64
2023/02/27 13:11:17;;;;;;;1.80;1.00;;;16.90;51.70;;;;;;5114816;28;20289;-62
2023/02/27 13:13:54;;;;;;;1.35;0.77;;;16.90;51.60;;;;;;5114703;28;20236;-63